sensor_id;sensor_type;location;lat;lon;timestamp;P1;durP1;ratioP1;P2;durP2;ratioP2
71174;SDS011;58876;51.994;4.472;2023-09-30T00:00:06;5.90;;;5.90;;
71174;SDS011;58876;51.994;4.472;2023-09-30T00:02:33;6.03;;;6.03;;
71174;SDS011;58876;51.994;4.472;2023-09-30T00:04:59;6.10;;;6.10;;
71174;SDS011;58876;51.994;4.472;2023-09-30T00:07:24;5.96;;;5.96;;
71174;SDS011;58876;51.994;4.472;2023-09-30T00:09:51;5.75;;;5.75;;
71174;SDS011;58876;51.994;4.472;2023-09-30T00:12:17;5.78;;;5.78;;
71174;SDS011;58876;51.994;4.472;2023-09-30T00:14:43;6.00;;;6.00;;
71174;SDS011;58876;51.994;4.472;2023-09-30T00:17:08;5.66;;;5.66;;
71174;SDS011;58876;51.994;4.472;2023-09-30T00:19:34;5.59;;;5.59;;
71174;SDS011;58876;51.994;4.472;2023-09-30T00:21:59;5.73;;;5.73;;
71174;SDS011;58876;51.994;4.472;2023-09-30T00:24:28;5.59;;;5.59;;
71174;SDS011;58876;51.994;4.472;2023-09-30T00:26:54;5.30;;;5.28;;
71174;SDS011;58876;51.994;4.472;2023-09-30T00:29:19;5.47;;;5.47;;
71174;SDS011;58876;51.994;4.472;2023-09-30T00:31:45;5.87;;;5.87;;
71174;SDS011;58876;51.994;4.472;2023-09-30T00:34:10;5.59;;;5.59;;
71174;SDS011;58876;51.994;4.472;2023-09-30T00:36:36;5.74;;;5.74;;
71174;SDS011;58876;51.994;4.472;2023-09-30T00:39:01;5.22;;;5.22;;
71174;SDS011;58876;51.994;4.472;2023-09-30T00:41:27;5.52;;;5.52;;
71174;SDS011;58876;51.994;4.472;2023-09-30T00:43:53;5.76;;;5.76;;
71174;SDS011;58876;51.994;4.472;2023-09-30T00:48:58;5.72;;;5.72;;
71174;SDS011;58876;51.994;4.472;2023-09-30T00:51:26;5.41;;;5.41;;
71174;SDS011;58876;51.994;4.472;2023-09-30T00:53:52;5.57;;;5.57;;
71174;SDS011;58876;51.994;4.472;2023-09-30T00:56:19;5.78;;;5.78;;
71174;SDS011;58876;51.994;4.472;2023-09-30T00:58:49;6.10;;;6.10;;
71174;SDS011;58876;51.994;4.472;2023-09-30T01:01:16;5.49;;;5.49;;
71174;SDS011;58876;51.994;4.472;2023-09-30T01:03:42;5.40;;;5.40;;
71174;SDS011;58876;51.994;4.472;2023-09-30T01:06:07;5.89;;;5.89;;
71174;SDS011;58876;51.994;4.472;2023-09-30T01:08:33;5.78;;;5.78;;
71174;SDS011;58876;51.994;4.472;2023-09-30T01:10:59;6.08;;;6.08;;
71174;SDS011;58876;51.994;4.472;2023-09-30T01:13:35;6.08;;;6.08;;
71174;SDS011;58876;51.994;4.472;2023-09-30T01:16:06;5.94;;;5.94;;
71174;SDS011;58876;51.994;4.472;2023-09-30T01:18:34;6.03;;;6.03;;
71174;SDS011;58876;51.994;4.472;2023-09-30T01:21:06;6.12;;;6.12;;
71174;SDS011;58876;51.994;4.472;2023-09-30T01:23:32;5.77;;;5.77;;
71174;SDS011;58876;51.994;4.472;2023-09-30T01:26:09;5.78;;;5.78;;
71174;SDS011;58876;51.994;4.472;2023-09-30T01:28:37;6.21;;;6.21;;
71174;SDS011;58876;51.994;4.472;2023-09-30T01:31:03;5.88;;;5.88;;
71174;SDS011;58876;51.994;4.472;2023-09-30T01:33:30;6.38;;;6.38;;
71174;SDS011;58876;51.994;4.472;2023-09-30T01:35:57;6.31;;;6.31;;
71174;SDS011;58876;51.994;4.472;2023-09-30T01:38:23;6.46;;;6.46;;
71174;SDS011;58876;51.994;4.472;2023-09-30T01:40:49;6.48;;;6.48;;
71174;SDS011;58876;51.994;4.472;2023-09-30T01:43:15;6.68;;;6.68;;
71174;SDS011;58876;51.994;4.472;2023-09-30T01:45:41;6.40;;;6.40;;
71174;SDS011;58876;51.994;4.472;2023-09-30T01:48:08;6.32;;;6.32;;
71174;SDS011;58876;51.994;4.472;2023-09-30T01:50:37;6.69;;;6.69;;
71174;SDS011;58876;51.994;4.472;2023-09-30T01:53:03;6.71;;;6.71;;
71174;SDS011;58876;51.994;4.472;2023-09-30T01:55:31;6.55;;;6.55;;
71174;SDS011;58876;51.994;4.472;2023-09-30T01:57:58;6.88;;;6.88;;
71174;SDS011;58876;51.994;4.472;2023-09-30T02:00:23;6.80;;;6.80;;
71174;SDS011;58876;51.994;4.472;2023-09-30T02:02:49;7.56;;;7.56;;
71174;SDS011;58876;51.994;4.472;2023-09-30T02:05:14;7.40;;;7.40;;
71174;SDS011;58876;51.994;4.472;2023-09-30T02:07:39;7.59;;;7.59;;
71174;SDS011;58876;51.994;4.472;2023-09-30T02:10:06;7.35;;;7.35;;
71174;SDS011;58876;51.994;4.472;2023-09-30T02:12:32;7.47;;;7.47;;
71174;SDS011;58876;51.994;4.472;2023-09-30T02:14:58;8.16;;;8.12;;
71174;SDS011;58876;51.994;4.472;2023-09-30T02:17:23;7.64;;;7.63;;
71174;SDS011;58876;51.994;4.472;2023-09-30T02:19:49;8.16;;;8.16;;
71174;SDS011;58876;51.994;4.472;2023-09-30T02:22:15;8.13;;;8.13;;
71174;SDS011;58876;51.994;4.472;2023-09-30T02:24:40;8.08;;;8.08;;
71174;SDS011;58876;51.994;4.472;2023-09-30T02:27:06;9.06;;;9.06;;
71174;SDS011;58876;51.994;4.472;2023-09-30T02:29:31;8.35;;;8.35;;
71174;SDS011;58876;51.994;4.472;2023-09-30T02:31:57;8.16;;;8.16;;
71174;SDS011;58876;51.994;4.472;2023-09-30T02:34:22;8.36;;;8.36;;
71174;SDS011;58876;51.994;4.472;2023-09-30T02:36:49;8.11;;;8.11;;
71174;SDS011;58876;51.994;4.472;2023-09-30T02:39:15;8.82;;;8.81;;
71174;SDS011;58876;51.994;4.472;2023-09-30T02:41:41;8.45;;;8.45;;
71174;SDS011;58876;51.994;4.472;2023-09-30T02:44:07;8.30;;;8.30;;
71174;SDS011;58876;51.994;4.472;2023-09-30T02:46:33;8.96;;;8.96;;
71174;SDS011;58876;51.994;4.472;2023-09-30T02:49:00;9.06;;;9.06;;
71174;SDS011;58876;51.994;4.472;2023-09-30T02:51:26;8.98;;;8.98;;
71174;SDS011;58876;51.994;4.472;2023-09-30T02:53:51;9.27;;;9.27;;
71174;SDS011;58876;51.994;4.472;2023-09-30T02:56:17;9.26;;;9.25;;
71174;SDS011;58876;51.994;4.472;2023-09-30T02:58:45;9.30;;;9.30;;
71174;SDS011;58876;51.994;4.472;2023-09-30T03:01:13;9.05;;;9.05;;
71174;SDS011;58876;51.994;4.472;2023-09-30T03:03:41;9.79;;;9.79;;
71174;SDS011;58876;51.994;4.472;2023-09-30T03:06:09;9.28;;;9.28;;
71174;SDS011;58876;51.994;4.472;2023-09-30T03:08:36;9.42;;;9.42;;
71174;SDS011;58876;51.994;4.472;2023-09-30T03:11:02;9.18;;;9.18;;
71174;SDS011;58876;51.994;4.472;2023-09-30T03:13:28;9.33;;;9.33;;
71174;SDS011;58876;51.994;4.472;2023-09-30T03:15:54;9.35;;;9.35;;
71174;SDS011;58876;51.994;4.472;2023-09-30T03:18:21;9.71;;;9.71;;
71174;SDS011;58876;51.994;4.472;2023-09-30T03:20:51;9.74;;;9.74;;
71174;SDS011;58876;51.994;4.472;2023-09-30T03:23:22;9.47;;;9.47;;
71174;SDS011;58876;51.994;4.472;2023-09-30T03:25:55;9.45;;;9.45;;
71174;SDS011;58876;51.994;4.472;2023-09-30T03:28:24;9.45;;;9.45;;
71174;SDS011;58876;51.994;4.472;2023-09-30T03:30:50;9.23;;;9.23;;
71174;SDS011;58876;51.994;4.472;2023-09-30T03:33:15;10.23;;;10.23;;
71174;SDS011;58876;51.994;4.472;2023-09-30T03:35:42;9.58;;;9.58;;
71174;SDS011;58876;51.994;4.472;2023-09-30T03:38:07;9.88;;;9.88;;
71174;SDS011;58876;51.994;4.472;2023-09-30T03:40:35;9.81;;;9.81;;
71174;SDS011;58876;51.994;4.472;2023-09-30T03:43:03;9.53;;;9.53;;
71174;SDS011;58876;51.994;4.472;2023-09-30T03:45:30;9.97;;;9.97;;
71174;SDS011;58876;51.994;4.472;2023-09-30T03:47:58;10.17;;;10.17;;
71174;SDS011;58876;51.994;4.472;2023-09-30T03:50:23;9.99;;;9.99;;
71174;SDS011;58876;51.994;4.472;2023-09-30T03:52:49;10.68;;;10.68;;
71174;SDS011;58876;51.994;4.472;2023-09-30T03:55:16;10.73;;;10.73;;
71174;SDS011;58876;51.994;4.472;2023-09-30T03:57:43;10.31;;;10.31;;
71174;SDS011;58876;51.994;4.472;2023-09-30T04:00:13;10.96;;;10.94;;
71174;SDS011;58876;51.994;4.472;2023-09-30T04:02:44;10.94;;;10.94;;
71174;SDS011;58876;51.994;4.472;2023-09-30T04:05:13;10.79;;;10.79;;
71174;SDS011;58876;51.994;4.472;2023-09-30T04:07:39;10.67;;;10.67;;
71174;SDS011;58876;51.994;4.472;2023-09-30T04:10:07;11.60;;;11.60;;
71174;SDS011;58876;51.994;4.472;2023-09-30T04:12:33;11.44;;;11.44;;
71174;SDS011;58876;51.994;4.472;2023-09-30T04:14:59;11.11;;;11.11;;
71174;SDS011;58876;51.994;4.472;2023-09-30T04:17:25;11.28;;;11.28;;
71174;SDS011;58876;51.994;4.472;2023-09-30T04:19:52;10.94;;;10.94;;
71174;SDS011;58876;51.994;4.472;2023-09-30T04:22:18;11.47;;;11.47;;
71174;SDS011;58876;51.994;4.472;2023-09-30T04:24:46;11.76;;;11.76;;
71174;SDS011;58876;51.994;4.472;2023-09-30T04:27:14;11.89;;;11.89;;
71174;SDS011;58876;51.994;4.472;2023-09-30T04:29:40;11.43;;;11.43;;
71174;SDS011;58876;51.994;4.472;2023-09-30T04:32:07;11.83;;;11.83;;
71174;SDS011;58876;51.994;4.472;2023-09-30T04:34:32;11.97;;;11.97;;
71174;SDS011;58876;51.994;4.472;2023-09-30T04:36:58;12.27;;;12.27;;
71174;SDS011;58876;51.994;4.472;2023-09-30T04:39:24;12.64;;;12.64;;
71174;SDS011;58876;51.994;4.472;2023-09-30T04:41:50;12.99;;;12.99;;
71174;SDS011;58876;51.994;4.472;2023-09-30T04:44:15;12.74;;;12.74;;
71174;SDS011;58876;51.994;4.472;2023-09-30T04:46:41;13.82;;;13.82;;
71174;SDS011;58876;51.994;4.472;2023-09-30T04:49:11;13.36;;;13.36;;
71174;SDS011;58876;51.994;4.472;2023-09-30T04:51:39;12.89;;;12.89;;
71174;SDS011;58876;51.994;4.472;2023-09-30T04:54:05;13.19;;;13.19;;
71174;SDS011;58876;51.994;4.472;2023-09-30T04:56:33;13.45;;;13.45;;
71174;SDS011;58876;51.994;4.472;2023-09-30T04:59:00;13.79;;;13.79;;
71174;SDS011;58876;51.994;4.472;2023-09-30T05:01:26;13.81;;;13.81;;
71174;SDS011;58876;51.994;4.472;2023-09-30T05:03:52;13.83;;;13.83;;
71174;SDS011;58876;51.994;4.472;2023-09-30T05:06:18;13.60;;;13.60;;
71174;SDS011;58876;51.994;4.472;2023-09-30T05:08:44;13.65;;;13.65;;
71174;SDS011;58876;51.994;4.472;2023-09-30T05:11:09;14.02;;;14.02;;
71174;SDS011;58876;51.994;4.472;2023-09-30T05:13:35;13.36;;;13.36;;
71174;SDS011;58876;51.994;4.472;2023-09-30T05:16:01;13.84;;;13.84;;
71174;SDS011;58876;51.994;4.472;2023-09-30T05:18:28;14.29;;;14.29;;
71174;SDS011;58876;51.994;4.472;2023-09-30T05:20:54;15.19;;;15.19;;
71174;SDS011;58876;51.994;4.472;2023-09-30T05:23:20;14.67;;;14.67;;
71174;SDS011;58876;51.994;4.472;2023-09-30T05:25:46;14.61;;;14.61;;
71174;SDS011;58876;51.994;4.472;2023-09-30T05:28:11;15.31;;;15.31;;
71174;SDS011;58876;51.994;4.472;2023-09-30T05:30:38;14.40;;;14.40;;
71174;SDS011;58876;51.994;4.472;2023-09-30T05:33:06;14.86;;;14.86;;
71174;SDS011;58876;51.994;4.472;2023-09-30T05:35:32;14.37;;;14.37;;
71174;SDS011;58876;51.994;4.472;2023-09-30T05:37:57;14.05;;;14.05;;
71174;SDS011;58876;51.994;4.472;2023-09-30T05:40:23;14.64;;;14.64;;
71174;SDS011;58876;51.994;4.472;2023-09-30T05:42:51;14.71;;;14.71;;
71174;SDS011;58876;51.994;4.472;2023-09-30T05:45:22;15.60;;;15.60;;
71174;SDS011;58876;51.994;4.472;2023-09-30T05:47:54;16.35;;;16.35;;
71174;SDS011;58876;51.994;4.472;2023-09-30T05:50:21;15.98;;;15.98;;
71174;SDS011;58876;51.994;4.472;2023-09-30T05:52:50;15.45;;;15.45;;
71174;SDS011;58876;51.994;4.472;2023-09-30T05:55:19;16.12;;;16.12;;
71174;SDS011;58876;51.994;4.472;2023-09-30T05:57:46;15.96;;;15.96;;
71174;SDS011;58876;51.994;4.472;2023-09-30T06:00:13;14.86;;;14.86;;
71174;SDS011;58876;51.994;4.472;2023-09-30T06:03:04;14.87;;;14.87;;
71174;SDS011;58876;51.994;4.472;2023-09-30T06:05:31;15.33;;;15.33;;
71174;SDS011;58876;51.994;4.472;2023-09-30T06:07:58;14.70;;;14.70;;
71174;SDS011;58876;51.994;4.472;2023-09-30T06:10:28;14.94;;;14.94;;
71174;SDS011;58876;51.994;4.472;2023-09-30T06:12:54;14.86;;;14.86;;
71174;SDS011;58876;51.994;4.472;2023-09-30T06:15:20;14.91;;;14.91;;
71174;SDS011;58876;51.994;4.472;2023-09-30T06:17:54;14.72;;;14.72;;
71174;SDS011;58876;51.994;4.472;2023-09-30T06:20:21;14.58;;;14.57;;
71174;SDS011;58876;51.994;4.472;2023-09-30T06:22:51;14.64;;;14.64;;
71174;SDS011;58876;51.994;4.472;2023-09-30T06:25:19;14.82;;;14.82;;
71174;SDS011;58876;51.994;4.472;2023-09-30T06:27:47;14.94;;;14.94;;
71174;SDS011;58876;51.994;4.472;2023-09-30T06:30:14;14.95;;;14.95;;
71174;SDS011;58876;51.994;4.472;2023-09-30T06:32:45;14.71;;;14.71;;
71174;SDS011;58876;51.994;4.472;2023-09-30T06:35:10;14.74;;;14.74;;
71174;SDS011;58876;51.994;4.472;2023-09-30T06:37:36;15.25;;;15.25;;
71174;SDS011;58876;51.994;4.472;2023-09-30T06:40:06;15.38;;;15.38;;
71174;SDS011;58876;51.994;4.472;2023-09-30T06:42:33;15.55;;;15.55;;
71174;SDS011;58876;51.994;4.472;2023-09-30T06:45:01;15.87;;;15.87;;
71174;SDS011;58876;51.994;4.472;2023-09-30T06:47:31;16.29;;;16.29;;
71174;SDS011;58876;51.994;4.472;2023-09-30T06:50:03;16.46;;;16.46;;
71174;SDS011;58876;51.994;4.472;2023-09-30T06:52:37;16.57;;;16.57;;
71174;SDS011;58876;51.994;4.472;2023-09-30T06:55:04;17.15;;;17.15;;
71174;SDS011;58876;51.994;4.472;2023-09-30T06:57:37;17.89;;;17.89;;
71174;SDS011;58876;51.994;4.472;2023-09-30T07:00:10;17.68;;;17.68;;
71174;SDS011;58876;51.994;4.472;2023-09-30T07:02:38;18.05;;;18.05;;
71174;SDS011;58876;51.994;4.472;2023-09-30T07:05:08;18.18;;;18.18;;
71174;SDS011;58876;51.994;4.472;2023-09-30T07:07:36;18.69;;;18.69;;
71174;SDS011;58876;51.994;4.472;2023-09-30T07:10:02;17.34;;;17.34;;
71174;SDS011;58876;51.994;4.472;2023-09-30T07:12:29;18.12;;;18.12;;
71174;SDS011;58876;51.994;4.472;2023-09-30T07:14:56;18.39;;;18.39;;
71174;SDS011;58876;51.994;4.472;2023-09-30T07:17:22;18.60;;;18.60;;
71174;SDS011;58876;51.994;4.472;2023-09-30T07:19:48;18.11;;;18.11;;
71174;SDS011;58876;51.994;4.472;2023-09-30T07:22:13;18.30;;;18.30;;
71174;SDS011;58876;51.994;4.472;2023-09-30T07:24:39;18.44;;;18.44;;
71174;SDS011;58876;51.994;4.472;2023-09-30T07:27:05;18.59;;;18.59;;
71174;SDS011;58876;51.994;4.472;2023-09-30T07:29:31;18.81;;;18.81;;
71174;SDS011;58876;51.994;4.472;2023-09-30T07:31:58;18.84;;;18.84;;
71174;SDS011;58876;51.994;4.472;2023-09-30T07:34:23;18.94;;;18.94;;
71174;SDS011;58876;51.994;4.472;2023-09-30T07:36:49;17.42;;;17.42;;
71174;SDS011;58876;51.994;4.472;2023-09-30T07:39:14;17.88;;;17.88;;
71174;SDS011;58876;51.994;4.472;2023-09-30T07:41:40;16.96;;;16.96;;
71174;SDS011;58876;51.994;4.472;2023-09-30T07:44:05;17.22;;;17.22;;
71174;SDS011;58876;51.994;4.472;2023-09-30T07:46:31;15.67;;;15.67;;
71174;SDS011;58876;51.994;4.472;2023-09-30T07:48:56;15.91;;;15.91;;
71174;SDS011;58876;51.994;4.472;2023-09-30T07:51:24;16.05;;;16.05;;
71174;SDS011;58876;51.994;4.472;2023-09-30T07:53:49;14.82;;;14.82;;
71174;SDS011;58876;51.994;4.472;2023-09-30T07:56:15;14.45;;;14.45;;
71174;SDS011;58876;51.994;4.472;2023-09-30T07:58:41;14.44;;;14.44;;
71174;SDS011;58876;51.994;4.472;2023-09-30T08:01:07;13.86;;;13.86;;
71174;SDS011;58876;51.994;4.472;2023-09-30T08:03:33;13.80;;;13.80;;
71174;SDS011;58876;51.994;4.472;2023-09-30T08:06:00;12.43;;;12.43;;
71174;SDS011;58876;51.994;4.472;2023-09-30T08:08:25;12.40;;;12.40;;
71174;SDS011;58876;51.994;4.472;2023-09-30T08:10:51;12.69;;;12.69;;
71174;SDS011;58876;51.994;4.472;2023-09-30T08:13:21;12.28;;;12.28;;
71174;SDS011;58876;51.994;4.472;2023-09-30T08:15:49;11.80;;;11.80;;
71174;SDS011;58876;51.994;4.472;2023-09-30T08:18:15;12.24;;;12.24;;
71174;SDS011;58876;51.994;4.472;2023-09-30T08:20:40;12.22;;;12.22;;
71174;SDS011;58876;51.994;4.472;2023-09-30T08:23:06;13.79;;;13.79;;
71174;SDS011;58876;51.994;4.472;2023-09-30T08:25:31;12.84;;;12.84;;
71174;SDS011;58876;51.994;4.472;2023-09-30T08:27:57;12.76;;;12.76;;
71174;SDS011;58876;51.994;4.472;2023-09-30T08:30:22;12.69;;;12.69;;
71174;SDS011;58876;51.994;4.472;2023-09-30T08:32:48;11.01;;;11.01;;
71174;SDS011;58876;51.994;4.472;2023-09-30T08:35:13;10.94;;;10.94;;
71174;SDS011;58876;51.994;4.472;2023-09-30T08:37:40;11.36;;;11.36;;
71174;SDS011;58876;51.994;4.472;2023-09-30T08:40:06;10.59;;;10.59;;
71174;SDS011;58876;51.994;4.472;2023-09-30T08:42:34;9.33;;;9.33;;
71174;SDS011;58876;51.994;4.472;2023-09-30T08:45:01;10.16;;;10.16;;
71174;SDS011;58876;51.994;4.472;2023-09-30T08:47:27;10.89;;;10.89;;
71174;SDS011;58876;51.994;4.472;2023-09-30T08:49:53;9.96;;;9.96;;
71174;SDS011;58876;51.994;4.472;2023-09-30T08:52:21;9.53;;;9.53;;
71174;SDS011;58876;51.994;4.472;2023-09-30T08:54:48;10.34;;;10.34;;
71174;SDS011;58876;51.994;4.472;2023-09-30T08:57:18;10.37;;;10.37;;
71174;SDS011;58876;51.994;4.472;2023-09-30T08:59:44;10.72;;;10.72;;
71174;SDS011;58876;51.994;4.472;2023-09-30T09:02:13;12.95;;;12.94;;
71174;SDS011;58876;51.994;4.472;2023-09-30T09:04:39;10.64;;;10.64;;
71174;SDS011;58876;51.994;4.472;2023-09-30T09:07:04;8.78;;;8.78;;
71174;SDS011;58876;51.994;4.472;2023-09-30T09:09:30;7.76;;;7.76;;
71174;SDS011;58876;51.994;4.472;2023-09-30T09:11:57;8.13;;;8.13;;
71174;SDS011;58876;51.994;4.472;2023-09-30T09:14:39;9.43;;;9.43;;
71174;SDS011;58876;51.994;4.472;2023-09-30T09:17:07;9.00;;;9.00;;
71174;SDS011;58876;51.994;4.472;2023-09-30T09:19:34;9.34;;;9.34;;
71174;SDS011;58876;51.994;4.472;2023-09-30T09:22:00;9.65;;;9.65;;
71174;SDS011;58876;51.994;4.472;2023-09-30T09:27:13;9.07;;;9.06;;
71174;SDS011;58876;51.994;4.472;2023-09-30T09:29:42;5.52;;;5.52;;
71174;SDS011;58876;51.994;4.472;2023-09-30T09:34:43;5.38;;;5.33;;
71174;SDS011;58876;51.994;4.472;2023-09-30T09:37:13;5.84;;;5.72;;
71174;SDS011;58876;51.994;4.472;2023-09-30T09:39:53;7.25;;;7.16;;
71174;SDS011;58876;51.994;4.472;2023-09-30T09:42:26;4.36;;;4.36;;
71174;SDS011;58876;51.994;4.472;2023-09-30T09:44:55;4.84;;;4.78;;
71174;SDS011;58876;51.994;4.472;2023-09-30T09:47:22;4.13;;;3.96;;
71174;SDS011;58876;51.994;4.472;2023-09-30T09:49:49;3.93;;;3.74;;
71174;SDS011;58876;51.994;4.472;2023-09-30T09:52:17;3.37;;;3.20;;
71174;SDS011;58876;51.994;4.472;2023-09-30T09:54:44;3.49;;;3.22;;
71174;SDS011;58876;51.994;4.472;2023-09-30T09:57:12;3.55;;;3.22;;
71174;SDS011;58876;51.994;4.472;2023-09-30T09:59:40;3.45;;;3.09;;
71174;SDS011;58876;51.994;4.472;2023-09-30T10:02:11;3.23;;;2.84;;
71174;SDS011;58876;51.994;4.472;2023-09-30T10:04:42;3.21;;;2.82;;
71174;SDS011;58876;51.994;4.472;2023-09-30T10:07:22;3.29;;;2.86;;
71174;SDS011;58876;51.994;4.472;2023-09-30T10:09:52;3.30;;;2.85;;
71174;SDS011;58876;51.994;4.472;2023-09-30T10:12:22;3.18;;;2.80;;
71174;SDS011;58876;51.994;4.472;2023-09-30T10:14:48;3.24;;;2.85;;
71174;SDS011;58876;51.994;4.472;2023-09-30T10:17:14;4.44;;;4.07;;
71174;SDS011;58876;51.994;4.472;2023-09-30T10:22:34;2.57;;;2.46;;
71174;SDS011;58876;51.994;4.472;2023-09-30T10:25:00;3.45;;;3.16;;
71174;SDS011;58876;51.994;4.472;2023-09-30T10:40:47;3.48;;;2.99;;
71174;SDS011;58876;51.994;4.472;2023-09-30T10:43:29;3.82;;;3.31;;
71174;SDS011;58876;51.994;4.472;2023-09-30T10:45:56;3.81;;;3.33;;
71174;SDS011;58876;51.994;4.472;2023-09-30T10:50:51;3.54;;;3.06;;
71174;SDS011;58876;51.994;4.472;2023-09-30T10:53:21;3.77;;;3.24;;
71174;SDS011;58876;51.994;4.472;2023-09-30T10:55:54;3.91;;;3.29;;
71174;SDS011;58876;51.994;4.472;2023-09-30T10:58:21;4.04;;;3.46;;
71174;SDS011;58876;51.994;4.472;2023-09-30T11:00:53;3.86;;;3.40;;
71174;SDS011;58876;51.994;4.472;2023-09-30T11:03:20;4.90;;;4.19;;
71174;SDS011;58876;51.994;4.472;2023-09-30T11:05:49;4.98;;;4.42;;
71174;SDS011;58876;51.994;4.472;2023-09-30T11:08:18;3.89;;;3.66;;
71174;SDS011;58876;51.994;4.472;2023-09-30T11:10:50;3.57;;;3.32;;
71174;SDS011;58876;51.994;4.472;2023-09-30T11:13:18;3.81;;;3.52;;
71174;SDS011;58876;51.994;4.472;2023-09-30T11:15:44;3.73;;;3.47;;
71174;SDS011;58876;51.994;4.472;2023-09-30T11:18:13;4.24;;;3.88;;
71174;SDS011;58876;51.994;4.472;2023-09-30T11:20:44;3.92;;;3.50;;
71174;SDS011;58876;51.994;4.472;2023-09-30T11:23:10;4.26;;;3.85;;
71174;SDS011;58876;51.994;4.472;2023-09-30T11:25:37;4.83;;;4.52;;
71174;SDS011;58876;51.994;4.472;2023-09-30T11:28:17;4.73;;;4.48;;
71174;SDS011;58876;51.994;4.472;2023-09-30T11:33:49;4.41;;;4.17;;
71174;SDS011;58876;51.994;4.472;2023-09-30T11:36:18;6.30;;;6.09;;
71174;SDS011;58876;51.994;4.472;2023-09-30T11:38:46;3.58;;;3.47;;
71174;SDS011;58876;51.994;4.472;2023-09-30T11:41:15;4.38;;;4.22;;
71174;SDS011;58876;51.994;4.472;2023-09-30T11:44:02;3.64;;;3.64;;
71174;SDS011;58876;51.994;4.472;2023-09-30T11:46:48;3.60;;;3.51;;
71174;SDS011;58876;51.994;4.472;2023-09-30T11:49:26;3.09;;;2.91;;
71174;SDS011;58876;51.994;4.472;2023-09-30T11:51:52;3.70;;;3.41;;
71174;SDS011;58876;51.994;4.472;2023-09-30T11:54:18;3.84;;;3.56;;
71174;SDS011;58876;51.994;4.472;2023-09-30T11:56:44;4.21;;;3.93;;
71174;SDS011;58876;51.994;4.472;2023-09-30T11:59:10;4.03;;;3.65;;
71174;SDS011;58876;51.994;4.472;2023-09-30T12:01:38;3.91;;;3.64;;
71174;SDS011;58876;51.994;4.472;2023-09-30T12:04:04;3.47;;;3.28;;
71174;SDS011;58876;51.994;4.472;2023-09-30T12:06:30;3.84;;;3.64;;
71174;SDS011;58876;51.994;4.472;2023-09-30T12:08:56;3.48;;;3.28;;
71174;SDS011;58876;51.994;4.472;2023-09-30T12:11:22;4.04;;;3.78;;
71174;SDS011;58876;51.994;4.472;2023-09-30T12:13:49;3.96;;;3.79;;
71174;SDS011;58876;51.994;4.472;2023-09-30T12:16:15;4.20;;;4.00;;
71174;SDS011;58876;51.994;4.472;2023-09-30T12:18:41;4.04;;;3.84;;
71174;SDS011;58876;51.994;4.472;2023-09-30T12:21:08;4.33;;;4.13;;
71174;SDS011;58876;51.994;4.472;2023-09-30T12:23:36;3.93;;;3.73;;
71174;SDS011;58876;51.994;4.472;2023-09-30T12:26:05;4.12;;;3.86;;
71174;SDS011;58876;51.994;4.472;2023-09-30T12:28:31;4.17;;;3.95;;
71174;SDS011;58876;51.994;4.472;2023-09-30T12:31:01;4.42;;;4.23;;
71174;SDS011;58876;51.994;4.472;2023-09-30T12:33:28;4.34;;;4.12;;
71174;SDS011;58876;51.994;4.472;2023-09-30T12:35:55;4.54;;;4.30;;
71174;SDS011;58876;51.994;4.472;2023-09-30T12:38:23;4.06;;;3.79;;
71174;SDS011;58876;51.994;4.472;2023-09-30T12:40:50;4.76;;;4.41;;
71174;SDS011;58876;51.994;4.472;2023-09-30T12:43:17;4.51;;;4.14;;
71174;SDS011;58876;51.994;4.472;2023-09-30T12:45:42;3.80;;;3.54;;
71174;SDS011;58876;51.994;4.472;2023-09-30T12:48:08;4.15;;;3.83;;
71174;SDS011;58876;51.994;4.472;2023-09-30T12:50:33;3.91;;;3.63;;
71174;SDS011;58876;51.994;4.472;2023-09-30T12:52:59;4.17;;;3.90;;
71174;SDS011;58876;51.994;4.472;2023-09-30T12:55:24;4.06;;;3.88;;
71174;SDS011;58876;51.994;4.472;2023-09-30T12:57:52;5.43;;;5.39;;
71174;SDS011;58876;51.994;4.472;2023-09-30T13:00:18;4.38;;;4.35;;
71174;SDS011;58876;51.994;4.472;2023-09-30T13:02:44;5.33;;;5.11;;
71174;SDS011;58876;51.994;4.472;2023-09-30T13:05:11;4.42;;;4.21;;
71174;SDS011;58876;51.994;4.472;2023-09-30T13:07:37;4.87;;;4.56;;
71174;SDS011;58876;51.994;4.472;2023-09-30T13:10:03;4.74;;;4.22;;
71174;SDS011;58876;51.994;4.472;2023-09-30T13:12:30;4.80;;;4.39;;
71174;SDS011;58876;51.994;4.472;2023-09-30T13:14:58;4.05;;;3.79;;
71174;SDS011;58876;51.994;4.472;2023-09-30T13:17:24;4.11;;;3.78;;
71174;SDS011;58876;51.994;4.472;2023-09-30T13:19:50;4.20;;;3.82;;
71174;SDS011;58876;51.994;4.472;2023-09-30T13:22:16;6.03;;;5.57;;
71174;SDS011;58876;51.994;4.472;2023-09-30T13:24:42;8.94;;;8.79;;
71174;SDS011;58876;51.994;4.472;2023-09-30T13:27:08;4.67;;;4.62;;
71174;SDS011;58876;51.994;4.472;2023-09-30T13:29:34;6.08;;;5.97;;
71174;SDS011;58876;51.994;4.472;2023-09-30T13:32:00;4.18;;;4.15;;
71174;SDS011;58876;51.994;4.472;2023-09-30T13:34:26;4.13;;;3.99;;
71174;SDS011;58876;51.994;4.472;2023-09-30T13:36:51;11.24;;;11.24;;
71174;SDS011;58876;51.994;4.472;2023-09-30T13:39:17;4.32;;;4.32;;
71174;SDS011;58876;51.994;4.472;2023-09-30T13:41:45;3.10;;;3.10;;
71174;SDS011;58876;51.994;4.472;2023-09-30T13:44:12;2.96;;;2.93;;
71174;SDS011;58876;51.994;4.472;2023-09-30T13:46:38;3.61;;;3.39;;
71174;SDS011;58876;51.994;4.472;2023-09-30T13:49:04;44.24;;;43.64;;
71174;SDS011;58876;51.994;4.472;2023-09-30T13:51:29;16.41;;;16.41;;
71174;SDS011;58876;51.994;4.472;2023-09-30T13:53:55;3.92;;;3.92;;
71174;SDS011;58876;51.994;4.472;2023-09-30T13:56:20;4.48;;;4.48;;
71174;SDS011;58876;51.994;4.472;2023-09-30T13:58:46;3.58;;;3.56;;
71174;SDS011;58876;51.994;4.472;2023-09-30T14:01:14;3.43;;;3.22;;
71174;SDS011;58876;51.994;4.472;2023-09-30T14:03:40;4.53;;;4.26;;
71174;SDS011;58876;51.994;4.472;2023-09-30T14:06:11;3.27;;;3.06;;
71174;SDS011;58876;51.994;4.472;2023-09-30T14:08:38;3.46;;;3.13;;
71174;SDS011;58876;51.994;4.472;2023-09-30T14:11:04;3.55;;;3.18;;
71174;SDS011;58876;51.994;4.472;2023-09-30T14:13:30;3.86;;;3.36;;
71174;SDS011;58876;51.994;4.472;2023-09-30T14:15:55;3.74;;;3.24;;
71174;SDS011;58876;51.994;4.472;2023-09-30T14:18:21;3.27;;;2.80;;
71174;SDS011;58876;51.994;4.472;2023-09-30T14:20:47;3.61;;;3.14;;
71174;SDS011;58876;51.994;4.472;2023-09-30T14:23:13;3.69;;;3.24;;
71174;SDS011;58876;51.994;4.472;2023-09-30T14:25:38;6.77;;;6.37;;
71174;SDS011;58876;51.994;4.472;2023-09-30T14:28:07;3.03;;;2.79;;
71174;SDS011;58876;51.994;4.472;2023-09-30T14:30:33;3.26;;;3.04;;
71174;SDS011;58876;51.994;4.472;2023-09-30T14:32:58;3.39;;;3.01;;
71174;SDS011;58876;51.994;4.472;2023-09-30T14:35:24;4.18;;;3.65;;
71174;SDS011;58876;51.994;4.472;2023-09-30T14:37:49;3.72;;;3.24;;
71174;SDS011;58876;51.994;4.472;2023-09-30T14:40:15;12.58;;;12.00;;
71174;SDS011;58876;51.994;4.472;2023-09-30T14:42:41;21.13;;;21.13;;
71174;SDS011;58876;51.994;4.472;2023-09-30T14:45:07;3.50;;;3.50;;
71174;SDS011;58876;51.994;4.472;2023-09-30T14:47:33;3.12;;;2.93;;
71174;SDS011;58876;51.994;4.472;2023-09-30T14:49:59;3.55;;;3.14;;
71174;SDS011;58876;51.994;4.472;2023-09-30T14:52:27;3.46;;;3.03;;
71174;SDS011;58876;51.994;4.472;2023-09-30T14:54:52;9.61;;;9.20;;
71174;SDS011;58876;51.994;4.472;2023-09-30T14:57:18;9.09;;;9.00;;
71174;SDS011;58876;51.994;4.472;2023-09-30T14:59:46;19.06;;;19.06;;
71174;SDS011;58876;51.994;4.472;2023-09-30T15:02:11;9.77;;;9.77;;
71174;SDS011;58876;51.994;4.472;2023-09-30T15:04:37;2.91;;;2.91;;
71174;SDS011;58876;51.994;4.472;2023-09-30T15:07:02;2.86;;;2.86;;